Eatonton, GA

10:00 AM EST on March 02, 2015 (GMT -0500)
RAWS IRAWS 1 (ROCK EAGLE) GA US | Change Station
CLOSE
Current Station
Personal Weather Station
Location: Eatonton, GA
Elevation: 475 ft
Nearby Weather Stations

Elev 475 ft 33.41 °N, 83.38 °W | Updated 54 minutes ago

Overcast
Overcast
48 °F
Feels Like 48 °F
N
1
Wind Variable Wind from SSW
Gusts 4.0 mph

Today
High -- | Low -- °F
--% Chance of Precip.
Yesterday
High -- | Low -- °F
Precip. -- in
7:00 AM 6:30 PM
Waxing Gibbous, 91% visible
Pressure 30.33 in
Visibility 7.0 miles
Clouds Scattered Clouds 400 ft
Overcast 1200 ft
Windchill 48 °F
Dew Point 48 °F
Humidity 100%
Rainfall 0.02 in
Snow Depth Not available.
UV 1 out of 12
Pollen 7.30 out of 12
Air Quality Not available.
Flu Activity Not available.
METAR KMLJ 021435Z AUTO 00000KT 7SM SCT004 OVC012 10/10 A3033 RMK AO2

More Conditions Fewer Conditions

Pressure 30.33 in
Visibility 7.0 miles
Clouds Scattered Clouds 400 ft
Overcast 1200 ft
Windchill 48 °F
Dew Point 48 °F
Humidity 100%
Rainfall 0.02 in
Snow Depth Not available.
UV 1 out of 12
Pollen 7.30 out of 12
Air Quality Not available.
Flu Activity Not available.
METAR KMLJ 021435Z AUTO 00000KT 7SM SCT004 OVC012 10/10 A3033 RMK AO2

More Conditions Fewer Conditions

10-Day Weather Forecast

Almanac

Astronomy

Mar. 02, 2015 Rise Set
Actual Time
Civil Twilight
Nautical Twilight
Astronomical Twilight
Moon
Length of Visible Light
Length of Day
Tomorrow will be .
, % of the Moon is Illuminated

Today's Extremes

State Highs State Lows

Community

WunderPhotos

Upload Photos

1,801,798 photos uploaded!

WunderBlogs® & News

Nearby

Air Quality

  Air Quality AQ Index Pollutant
Not available.

Snow Depth

Station Depth Elevation

Earthquake Activity

City Distance Mag. Time & Date
Minimum magnitude displayed is 2.5.

Coastal Water Temperatures

Place Temperature

Nearby Weather Stations